Time;durP1;ratioP1;P1;durP2;ratioP2;P2;SDS_P1;SDS_P2;PMS_P1;PMS_P2;Temp;Humidity;BMP_temperature;BMP_pressure;BME280_temperature;BME280_humidity;BME280_pressure;Samples;Min_cycle;Max_cycle;Signal;HPM_P1;HPM_P2
2021/06/12 00:01:43;;;;;;;0.70;0.70;;;22.70;99.90;;;;;;5049757;28;20550;-83
2021/06/12 00:04:09;;;;;;;1.73;1.63;;;22.70;99.90;;;;;;5050533;28;20181;-82
2021/06/12 00:06:35;;;;;;;0.50;0.50;;;22.50;99.90;;;;;;5049398;28;20236;-82
2021/06/12 00:09:00;;;;;;;2.53;0.97;;;22.60;99.90;;;;;;5050402;28;20229;-82
2021/06/12 00:11:26;;;;;;;0.47;0.47;;;22.70;99.90;;;;;;5053493;28;20239;-83
2021/06/12 00:13:51;;;;;;;0.40;0.40;;;22.70;99.90;;;;;;5055260;28;20189;-83
2021/06/12 00:16:18;;;;;;;0.90;0.43;;;22.70;99.90;;;;;;5054455;28;20181;-82
2021/06/12 00:18:45;;;;;;;0.53;0.53;;;22.70;99.90;;;;;;5054797;28;20616;-83
2021/06/12 00:21:10;;;;;;;0.97;0.97;;;22.70;99.90;;;;;;5053899;28;20178;-83
2021/06/12 00:23:36;;;;;;;0.40;0.40;;;22.70;99.90;;;;;;5054089;28;20186;-83
2021/06/12 00:26:02;;;;;;;0.70;0.70;;;22.70;99.90;;;;;;5055196;28;20241;-83
2021/06/12 00:28:28;;;;;;;1.50;0.60;;;22.80;99.90;;;;;;5051955;28;20212;-83
2021/06/12 00:30:53;;;;;;;0.40;0.40;;;22.80;99.90;;;;;;5054166;28;20193;-83
2021/06/12 00:33:19;;;;;;;1.03;0.90;;;22.80;99.90;;;;;;5053686;28;20748;-82
2021/06/12 00:35:44;;;;;;;1.13;0.77;;;22.80;99.90;;;;;;5053705;28;20242;-83
2021/06/12 00:38:11;;;;;;;1.80;0.40;;;22.70;99.90;;;;;;5053741;28;20217;-83
2021/06/12 00:40:36;;;;;;;0.50;0.50;;;22.60;99.90;;;;;;5052182;28;20272;-82
2021/06/12 00:43:03;;;;;;;0.30;0.30;;;22.60;99.90;;;;;;5046928;28;20340;-82
2021/06/12 00:45:30;;;;;;;0.60;0.60;;;22.60;99.90;;;;;;5053160;28;20209;-83
2021/06/12 00:47:57;;;;;;;0.70;0.70;;;22.60;99.90;;;;;;5054499;28;20206;-82
2021/06/12 00:50:25;;;;;;;0.40;0.30;;;22.60;99.90;;;;;;5042454;28;20209;-83
2021/06/12 00:52:51;;;;;;;0.83;0.67;;;22.60;99.90;;;;;;5052337;28;20768;-82
2021/06/12 00:55:17;;;;;;;0.83;0.60;;;22.60;99.90;;;;;;5052906;28;20304;-83
2021/06/12 00:57:44;;;;;;;1.23;1.00;;;22.40;99.90;;;;;;5045703;28;20209;-83
2021/06/12 01:00:13;;;;;;;0.20;0.20;;;22.40;99.90;;;;;;5054917;28;20354;-82
2021/06/12 01:02:39;;;;;;;0.57;0.57;;;22.50;99.90;;;;;;5053468;28;20201;-83
2021/06/12 01:05:08;;;;;;;1.03;0.70;;;22.50;99.90;;;;;;5053555;28;20202;-82
2021/06/12 01:07:34;;;;;;;0.20;0.20;;;22.40;99.90;;;;;;5052946;28;20615;-82
2021/06/12 01:10:00;;;;;;;0.40;0.40;;;22.50;99.90;;;;;;5052635;28;20197;-83
2021/06/12 01:12:36;;;;;;;0.30;0.30;;;22.40;99.90;;;;;;5053240;28;20182;-83
2021/06/12 01:15:05;;;;;;;0.50;0.50;;;22.50;99.90;;;;;;5055249;28;20519;-82
2021/06/12 01:17:51;;;;;;;0.50;0.50;;;22.40;99.90;;;;;;5041667;28;20210;-83
2021/06/12 01:20:41;;;;;;;0.33;0.33;;;22.50;99.90;;;;;;5064510;28;20220;-82
2021/06/12 01:23:06;;;;;;;0.57;0.40;;;22.50;99.90;;;;;;5054695;28;20188;-82
2021/06/12 01:26:00;;;;;;;0.30;0.30;;;22.50;99.90;;;;;;5051789;28;20296;-81
2021/06/12 01:29:07;;;;;;;0.30;0.30;;;22.50;99.90;;;;;;5043303;28;20206;-83
2021/06/12 01:31:34;;;;;;;0.40;0.40;;;22.50;99.90;;;;;;5042180;28;20182;-81
2021/06/12 01:34:02;;;;;;;0.57;0.57;;;22.50;99.90;;;;;;5068924;28;20193;-83
2021/06/12 01:36:29;;;;;;;0.40;0.40;;;22.50;99.90;;;;;;5051774;28;20192;-82
2021/06/12 01:38:56;;;;;;;0.50;0.50;;;22.40;99.90;;;;;;5053206;28;20317;-82
2021/06/12 01:41:22;;;;;;;0.50;0.50;;;22.40;99.90;;;;;;5069060;28;20177;-82
2021/06/12 01:43:50;;;;;;;0.40;0.40;;;22.30;99.90;;;;;;5044305;28;20555;-83
2021/06/12 01:46:17;;;;;;;0.77;0.73;;;22.30;99.90;;;;;;5052529;28;20292;-83
2021/06/12 01:48:45;;;;;;;0.47;0.47;;;22.30;99.90;;;;;;5048204;28;20198;-82
2021/06/12 01:51:12;;;;;;;0.77;0.40;;;22.20;99.90;;;;;;5048199;28;20193;-81
2021/06/12 01:53:39;;;;;;;0.30;0.30;;;22.20;99.90;;;;;;5052382;28;20276;-83
2021/06/12 01:56:06;;;;;;;0.70;0.50;;;22.20;99.90;;;;;;5052788;28;20555;-82
2021/06/12 01:58:33;;;;;;;0.53;0.50;;;22.20;99.90;;;;;;5038679;28;20224;-82
2021/06/12 02:01:01;;;;;;;0.40;0.40;;;22.10;99.90;;;;;;5067319;28;20186;-82
2021/06/12 02:03:28;;;;;;;0.87;0.67;;;22.00;99.90;;;;;;5053784;28;20184;-83
2021/06/12 02:05:54;;;;;;;0.27;0.27;;;21.90;99.90;;;;;;5052422;28;20296;-82
2021/06/12 02:08:21;;;;;;;0.70;0.70;;;21.90;99.90;;;;;;5052629;28;20197;-82
2021/06/12 02:10:48;;;;;;;0.30;0.30;;;21.80;99.90;;;;;;5068029;28;20182;-83
2021/06/12 02:13:19;;;;;;;0.53;0.30;;;21.70;99.90;;;;;;5069298;28;20174;-83
2021/06/12 02:15:49;;;;;;;0.37;0.37;;;21.60;99.90;;;;;;5052704;28;20188;-83
2021/06/12 02:18:17;;;;;;;0.60;0.60;;;21.50;99.90;;;;;;5051174;28;20202;-83
2021/06/12 02:20:43;;;;;;;0.60;0.60;;;21.40;99.90;;;;;;5051199;28;20186;-83
2021/06/12 02:23:09;;;;;;;2.47;0.90;;;21.10;99.90;;;;;;5052152;28;20562;-83
2021/06/12 02:25:36;;;;;;;0.57;0.50;;;20.80;99.90;;;;;;5051969;28;20205;-83
2021/06/12 02:28:06;;;;;;;0.50;0.50;;;20.60;99.90;;;;;;5052216;28;20709;-82
2021/06/12 02:30:38;;;;;;;0.40;0.40;;;20.60;99.90;;;;;;5049982;28;20259;-81
2021/06/12 02:33:05;;;;;;;0.20;0.20;;;20.60;99.90;;;;;;5044791;28;20244;-83
2021/06/12 02:35:33;;;;;;;0.73;0.50;;;20.70;99.90;;;;;;5049622;28;20205;-83
2021/06/12 02:37:59;;;;;;;0.40;0.40;;;20.80;99.90;;;;;;5048844;28;20212;-83
2021/06/12 02:40:26;;;;;;;0.50;0.40;;;20.80;99.90;;;;;;5067190;28;20680;-83
2021/06/12 02:42:51;;;;;;;0.43;0.43;;;20.80;99.90;;;;;;5049016;28;20185;-83
2021/06/12 02:45:18;;;;;;;0.73;0.67;;;20.90;99.90;;;;;;5051208;28;20197;-83
2021/06/12 02:48:01;;;;;;;0.40;0.40;;;20.90;99.90;;;;;;5067177;28;20206;-83
2021/06/12 02:50:31;;;;;;;1.13;1.03;;;20.90;99.90;;;;;;5043240;28;20180;-83
2021/06/12 02:53:10;;;;;;;0.73;0.73;;;21.00;99.90;;;;;;5051712;28;20273;-83
2021/06/12 02:55:41;;;;;;;0.33;0.33;;;21.00;99.90;;;;;;5051647;28;20178;-83
2021/06/12 02:58:09;;;;;;;2.13;1.67;;;21.10;99.90;;;;;;5050291;28;20640;-83
2021/06/12 03:00:37;;;;;;;0.63;0.63;;;21.10;99.90;;;;;;5049926;28;20186;-83
2021/06/12 03:03:03;;;;;;;0.70;0.60;;;21.10;99.90;;;;;;5051737;28;20193;-81
2021/06/12 03:05:31;;;;;;;0.63;0.53;;;21.10;99.90;;;;;;5050051;28;20196;-83
2021/06/12 03:07:59;;;;;;;0.77;0.73;;;21.10;99.90;;;;;;5054564;28;20681;-83
2021/06/12 03:10:30;;;;;;;1.17;1.03;;;21.00;99.90;;;;;;5051985;28;20197;-82
2021/06/12 03:12:57;;;;;;;1.20;0.97;;;20.90;99.90;;;;;;5050841;28;20186;-83
2021/06/12 03:15:23;;;;;;;0.50;0.50;;;20.80;99.90;;;;;;5051110;28;20185;-83
2021/06/12 03:17:50;;;;;;;0.70;0.70;;;20.80;99.90;;;;;;5045342;28;20344;-83
2021/06/12 03:20:18;;;;;;;2.00;1.00;;;20.80;99.90;;;;;;5049808;28;20183;-83
2021/06/12 03:22:46;;;;;;;0.30;0.30;;;20.70;99.90;;;;;;5050768;28;20197;-82
2021/06/12 03:25:13;;;;;;;0.70;0.70;;;20.60;99.90;;;;;;5045757;28;20575;-83
2021/06/12 03:27:39;;;;;;;0.37;0.30;;;20.50;99.90;;;;;;5064612;28;20300;-82
2021/06/12 03:30:06;;;;;;;0.40;0.40;;;20.50;99.90;;;;;;5064168;28;20271;-82
2021/06/12 03:32:32;;;;;;;0.50;0.50;;;20.50;99.90;;;;;;5050988;28;20181;-83
2021/06/12 03:34:59;;;;;;;0.60;0.60;;;20.50;99.90;;;;;;5050718;28;20533;-85
2021/06/12 03:37:25;;;;;;;0.60;0.60;;;20.50;99.90;;;;;;5066732;28;20213;-83
2021/06/12 03:39:51;;;;;;;0.77;0.77;;;20.60;99.90;;;;;;5054666;28;20653;-84
2021/06/12 03:42:17;;;;;;;0.33;0.33;;;20.70;99.90;;;;;;5034844;28;20264;-82
2021/06/12 03:44:45;;;;;;;0.53;0.47;;;20.70;99.90;;;;;;5033688;28;20185;-84
2021/06/12 03:47:12;;;;;;;0.50;0.50;;;20.80;99.90;;;;;;5048246;28;20260;-83
2021/06/12 03:49:39;;;;;;;1.70;0.60;;;20.90;99.90;;;;;;5055282;28;20190;-82
2021/06/12 03:52:06;;;;;;;1.80;1.53;;;21.10;99.90;;;;;;5051604;28;20184;-83
2021/06/12 03:54:34;;;;;;;0.67;0.67;;;21.20;99.90;;;;;;5057629;28;20203;-83
2021/06/12 03:56:59;;;;;;;0.27;0.27;;;21.20;99.90;;;;;;5054543;28;20191;-84
2021/06/12 03:59:25;;;;;;;0.80;0.53;;;21.20;99.90;;;;;;5071839;28;20272;-83
2021/06/12 04:01:55;;;;;;;0.50;0.37;;;21.30;99.90;;;;;;5046881;28;20178;-84
2021/06/12 04:04:22;;;;;;;0.83;0.60;;;21.40;99.90;;;;;;5048709;28;20181;-84
2021/06/12 04:06:50;;;;;;;1.07;0.77;;;21.30;99.90;;;;;;5065333;28;20221;-83
2021/06/12 04:09:16;;;;;;;1.17;0.90;;;21.30;99.90;;;;;;5052104;28;20612;-82
2021/06/12 04:11:41;;;;;;;0.47;0.43;;;21.30;99.90;;;;;;5060313;28;20186;-84
2021/06/12 04:14:07;;;;;;;0.60;0.60;;;21.20;99.90;;;;;;5049625;28;20277;-83
2021/06/12 04:16:32;;;;;;;0.40;0.40;;;21.10;99.90;;;;;;5051238;28;20189;-83
2021/06/12 04:19:00;;;;;;;0.27;0.27;;;21.10;99.90;;;;;;5050209;28;20246;-82
2021/06/12 04:21:26;;;;;;;0.40;0.40;;;21.30;99.90;;;;;;5058017;28;20201;-83
2021/06/12 04:23:52;;;;;;;0.50;0.50;;;21.60;99.90;;;;;;5045933;28;20189;-83
2021/06/12 04:26:17;;;;;;;0.47;0.47;;;21.90;99.90;;;;;;5054663;28;20217;-85
2021/06/12 04:28:43;;;;;;;0.47;0.43;;;21.90;99.90;;;;;;5052820;28;20292;-85
2021/06/12 04:31:08;;;;;;;0.47;0.47;;;22.00;99.90;;;;;;5055008;28;20202;-83
2021/06/12 04:33:34;;;;;;;0.37;0.37;;;22.10;99.90;;;;;;5047542;28;20562;-83
2021/06/12 04:36:00;;;;;;;0.43;0.40;;;22.30;99.90;;;;;;5052705;28;20181;-84
2021/06/12 04:38:25;;;;;;;0.50;0.50;;;22.40;99.90;;;;;;5051221;28;20210;-83
2021/06/12 04:40:51;;;;;;;0.50;0.50;;;22.40;99.90;;;;;;5060555;28;20637;-84
2021/06/12 04:43:16;;;;;;;0.50;0.50;;;22.40;99.90;;;;;;5059528;28;20598;-82
2021/06/12 04:45:42;;;;;;;1.03;0.87;;;22.30;99.90;;;;;;5052025;28;20214;-85
2021/06/12 04:48:08;;;;;;;0.77;0.77;;;22.20;99.90;;;;;;5060180;28;20210;-85
2021/06/12 04:50:37;;;;;;;0.50;0.30;;;22.40;99.90;;;;;;5046718;28;20189;-85
2021/06/12 04:53:04;;;;;;;0.67;0.67;;;22.30;99.90;;;;;;5050089;28;20617;-83
2021/06/12 04:55:29;;;;;;;0.40;0.40;;;22.40;99.90;;;;;;5050559;28;20177;-83
2021/06/12 04:57:55;;;;;;;0.53;0.53;;;22.50;99.90;;;;;;5047383;28;20216;-82
2021/06/12 05:00:21;;;;;;;1.27;0.73;;;22.40;99.90;;;;;;5052055;28;20226;-83
2021/06/12 05:02:47;;;;;;;0.50;0.50;;;22.40;99.90;;;;;;5054446;28;20192;-81
2021/06/12 05:05:13;;;;;;;0.40;0.40;;;22.40;99.90;;;;;;5054773;28;20681;-83
2021/06/12 05:07:38;;;;;;;0.27;0.27;;;22.50;99.90;;;;;;5055005;28;20707;-83
2021/06/12 05:10:06;;;;;;;0.70;0.70;;;22.50;99.90;;;;;;5052582;28;20254;-83
2021/06/12 05:12:32;;;;;;;0.30;0.30;;;22.50;99.90;;;;;;5054641;28;20194;-85
2021/06/12 05:15:00;;;;;;;0.30;0.30;;;22.60;99.90;;;;;;5054151;28;20190;-85
2021/06/12 05:17:27;;;;;;;0.40;0.40;;;22.70;99.90;;;;;;5051595;28;20213;-84
2021/06/12 05:19:52;;;;;;;0.30;0.30;;;22.70;99.90;;;;;;5051646;28;20255;-85
2021/06/12 05:22:22;;;;;;;0.60;0.60;;;22.80;99.90;;;;;;5052193;28;20661;-85
2021/06/12 05:24:48;;;;;;;0.50;0.50;;;22.90;99.90;;;;;;5053689;28;20209;-86
2021/06/12 05:27:14;;;;;;;0.40;0.40;;;23.00;99.90;;;;;;5052756;28;20182;-84
2021/06/12 05:29:39;;;;;;;0.40;0.40;;;23.00;99.90;;;;;;5053904;28;20198;-82
2021/06/12 05:32:05;;;;;;;0.47;0.47;;;23.00;99.90;;;;;;5040986;28;20204;-83
2021/06/12 05:34:31;;;;;;;0.70;0.70;;;23.00;99.90;;;;;;5043091;28;20194;-82
2021/06/12 05:36:58;;;;;;;0.40;0.40;;;23.00;99.90;;;;;;5049913;28;20191;-82
2021/06/12 05:39:24;;;;;;;0.70;0.70;;;23.00;99.90;;;;;;5046365;28;20272;-81
2021/06/12 05:41:49;;;;;;;0.83;0.63;;;22.70;99.90;;;;;;5049803;28;20316;-82
2021/06/12 05:44:15;;;;;;;0.60;0.60;;;22.30;99.90;;;;;;5047286;28;20196;-82
2021/06/12 05:46:40;;;;;;;0.83;0.83;;;22.10;99.90;;;;;;5064125;28;20264;-81
2021/06/12 05:49:06;;;;;;;0.47;0.47;;;22.10;99.90;;;;;;5046985;28;20208;-81
2021/06/12 05:51:31;;;;;;;3.17;0.57;;;22.40;99.90;;;;;;5050679;28;20193;-82
2021/06/12 05:53:57;;;;;;;1.13;0.73;;;22.40;99.90;;;;;;5044339;28;20189;-81
2021/06/12 05:56:23;;;;;;;2.83;1.10;;;22.30;99.90;;;;;;5046571;28;20264;-82
2021/06/12 05:58:48;;;;;;;0.63;0.63;;;22.20;99.90;;;;;;5052924;28;20340;-81
2021/06/12 06:01:14;;;;;;;0.73;0.57;;;22.40;99.90;;;;;;5047951;28;20236;-82
2021/06/12 06:03:39;;;;;;;1.37;0.90;;;22.50;99.90;;;;;;5050583;28;20196;-82
2021/06/12 06:06:08;;;;;;;4.20;1.50;;;22.50;99.90;;;;;;5051309;28;20210;-82
2021/06/12 06:08:35;;;;;;;1.20;1.20;;;22.60;99.90;;;;;;5045098;28;20212;-82
2021/06/12 06:11:01;;;;;;;0.93;0.73;;;22.70;99.90;;;;;;5050589;28;20178;-81
2021/06/12 06:13:27;;;;;;;1.07;0.53;;;22.80;99.90;;;;;;5049502;28;20192;-81
2021/06/12 06:15:52;;;;;;;0.47;0.47;;;23.10;99.90;;;;;;5049652;28;20189;-83
2021/06/12 06:18:18;;;;;;;0.57;0.53;;;23.20;99.90;;;;;;5047952;28;20201;-82
2021/06/12 06:20:45;;;;;;;0.23;0.23;;;23.40;99.90;;;;;;5053122;28;20260;-82
2021/06/12 06:23:11;;;;;;;0.60;0.60;;;23.50;99.90;;;;;;5051315;28;20189;-81
2021/06/12 06:25:37;;;;;;;1.50;1.10;;;23.30;99.90;;;;;;5048966;28;20245;-83
2021/06/12 06:28:03;;;;;;;0.70;0.70;;;23.30;99.90;;;;;;5052223;28;20221;-82
2021/06/12 06:30:29;;;;;;;0.40;0.40;;;23.30;99.90;;;;;;5047507;28;20227;-82
2021/06/12 06:32:55;;;;;;;0.83;0.83;;;23.40;99.90;;;;;;5049932;28;20193;-82
2021/06/12 06:35:20;;;;;;;0.60;0.50;;;23.70;99.90;;;;;;5045506;28;20186;-81
2021/06/12 06:37:46;;;;;;;0.60;0.60;;;23.60;99.90;;;;;;5052268;28;20712;-82
2021/06/12 06:40:13;;;;;;;1.40;1.30;;;23.70;99.90;;;;;;5052202;28;20182;-82
2021/06/12 06:42:40;;;;;;;1.00;0.80;;;23.80;99.90;;;;;;5047802;28;20192;-82
2021/06/12 06:45:07;;;;;;;0.93;0.87;;;23.40;99.90;;;;;;5065476;28;20208;-81
2021/06/12 06:47:32;;;;;;;0.97;0.93;;;23.30;99.90;;;;;;5048680;28;20263;-83
2021/06/12 06:49:58;;;;;;;0.73;0.70;;;23.60;99.90;;;;;;5047440;28;20186;-83
2021/06/12 06:52:23;;;;;;;2.07;0.83;;;23.50;99.90;;;;;;5043149;28;20185;-83
2021/06/12 06:54:49;;;;;;;0.77;0.77;;;23.60;99.90;;;;;;5048538;28;20190;-81
2021/06/12 06:57:15;;;;;;;0.40;0.40;;;23.80;99.90;;;;;;5053009;28;20177;-82
2021/06/12 06:59:40;;;;;;;0.50;0.50;;;23.90;99.90;;;;;;5046308;28;20183;-83
2021/06/12 07:02:07;;;;;;;0.73;0.40;;;24.10;99.90;;;;;;5046360;28;20231;-82
2021/06/12 07:04:32;;;;;;;1.23;0.60;;;24.20;99.90;;;;;;5063295;28;20175;-82
2021/06/12 07:06:58;;;;;;;0.43;0.40;;;24.20;99.90;;;;;;5043294;28;20704;-82
2021/06/12 07:09:25;;;;;;;1.10;0.80;;;24.10;99.90;;;;;;5049329;28;20200;-82
2021/06/12 07:11:51;;;;;;;1.53;0.97;;;24.20;99.90;;;;;;5050576;28;20198;-85
2021/06/12 07:14:17;;;;;;;0.33;0.33;;;23.90;99.90;;;;;;5047158;28;20206;-81
2021/06/12 07:16:42;;;;;;;0.80;0.80;;;24.30;99.90;;;;;;5049624;28;20623;-83
2021/06/12 07:19:08;;;;;;;1.23;1.03;;;24.20;99.90;;;;;;5045946;28;20218;-83
2021/06/12 07:21:34;;;;;;;1.33;0.80;;;24.30;99.90;;;;;;5046421;28;20189;-84
2021/06/12 07:23:59;;;;;;;2.70;0.87;;;24.90;99.90;;;;;;5048452;28;20186;-83
2021/06/12 07:26:25;;;;;;;0.40;0.40;;;25.30;99.90;;;;;;5051144;28;20554;-83
2021/06/12 07:28:51;;;;;;;1.17;1.07;;;25.60;99.90;;;;;;5050171;28;20216;-83
2021/06/12 07:31:17;;;;;;;2.07;0.90;;;26.00;99.90;;;;;;5052046;28;20200;-82
2021/06/12 07:33:42;;;;;;;2.57;0.50;;;26.10;99.90;;;;;;5042732;28;20185;-83
2021/06/12 07:36:08;;;;;;;0.67;0.67;;;26.20;99.90;;;;;;5052225;28;20613;-83
2021/06/12 07:38:33;;;;;;;0.87;0.87;;;26.30;99.90;;;;;;5063786;28;20209;-83
2021/06/12 07:40:59;;;;;;;0.83;0.57;;;26.40;99.90;;;;;;5046283;28;20183;-83
2021/06/12 07:43:24;;;;;;;0.83;0.30;;;26.80;99.90;;;;;;5051255;28;20181;-84
2021/06/12 07:45:50;;;;;;;0.97;0.93;;;27.00;99.90;;;;;;5047272;28;20400;-84
2021/06/12 07:48:16;;;;;;;3.87;1.00;;;27.20;99.90;;;;;;5050144;28;20691;-83
2021/06/12 07:50:43;;;;;;;0.60;0.60;;;27.10;99.90;;;;;;5047965;28;20194;-83
2021/06/12 07:53:08;;;;;;;0.67;0.67;;;26.80;99.90;;;;;;5050301;28;20253;-84
2021/06/12 07:55:34;;;;;;;1.70;0.90;;;26.20;99.90;;;;;;5050093;28;20193;-83
2021/06/12 07:58:01;;;;;;;0.60;0.57;;;26.60;99.90;;;;;;5049613;28;20613;-83
2021/06/12 08:00:27;;;;;;;1.30;0.63;;;26.60;99.90;;;;;;5051349;28;20185;-83
2021/06/12 08:02:53;;;;;;;0.70;0.70;;;26.80;99.90;;;;;;5052726;28;20561;-83
2021/06/12 08:05:18;;;;;;;0.73;0.73;;;26.80;99.90;;;;;;5051821;28;20760;-83
2021/06/12 08:07:44;;;;;;;1.07;1.07;;;27.00;99.90;;;;;;5050975;28;20205;-83
2021/06/12 08:10:10;;;;;;;3.10;0.80;;;27.10;99.90;;;;;;5067042;28;20181;-83
2021/06/12 08:12:36;;;;;;;2.27;1.30;;;26.90;99.90;;;;;;5050922;28;20177;-82
2021/06/12 08:15:04;;;;;;;0.90;0.90;;;26.80;99.90;;;;;;5050266;28;20774;-83
2021/06/12 08:17:30;;;;;;;3.53;0.97;;;26.90;99.90;;;;;;5049596;28;20288;-82
2021/06/12 08:19:56;;;;;;;1.60;1.30;;;26.90;99.90;;;;;;5052248;28;20746;-83
2021/06/12 08:22:21;;;;;;;1.27;0.97;;;26.80;99.90;;;;;;5047299;28;20272;-82
2021/06/12 08:24:49;;;;;;;1.50;1.40;;;26.80;99.90;;;;;;5046763;28;20301;-83
2021/06/12 08:27:15;;;;;;;2.57;1.13;;;26.80;99.90;;;;;;5041650;28;20182;-83
2021/06/12 08:29:40;;;;;;;1.73;0.97;;;26.90;99.90;;;;;;5041564;28;20208;-83
2021/06/12 08:32:07;;;;;;;1.67;0.80;;;27.20;99.90;;;;;;5046791;28;20668;-83
2021/06/12 08:34:33;;;;;;;8.27;1.50;;;27.50;99.90;;;;;;5046144;28;20273;-83
2021/06/12 08:37:00;;;;;;;1.53;1.43;;;27.50;99.90;;;;;;5047830;28;20280;-83
2021/06/12 08:39:25;;;;;;;1.10;1.00;;;27.20;99.90;;;;;;5069622;28;20657;-83
2021/06/12 08:41:51;;;;;;;1.57;1.30;;;27.20;99.90;;;;;;5052580;28;20220;-83
2021/06/12 08:44:22;;;;;;;1.13;1.07;;;27.00;99.90;;;;;;5049126;28;20668;-83
2021/06/12 08:46:48;;;;;;;1.73;1.27;;;27.20;99.90;;;;;;5044228;28;20225;-84
2021/06/12 08:49:15;;;;;;;1.43;1.10;;;27.20;99.90;;;;;;5049870;28;20202;-84
2021/06/12 08:51:40;;;;;;;0.50;0.50;;;27.20;99.90;;;;;;5043897;28;20224;-81
2021/06/12 08:54:06;;;;;;;0.87;0.87;;;27.00;99.90;;;;;;5041070;28;20225;-82
2021/06/12 08:56:32;;;;;;;0.63;0.63;;;27.20;99.90;;;;;;5050856;28;20193;-83
2021/06/12 08:58:57;;;;;;;1.10;1.00;;;27.10;99.90;;;;;;5048255;28;20208;-83
2021/06/12 09:01:23;;;;;;;1.03;0.90;;;27.20;99.90;;;;;;5053024;28;20340;-81
2021/06/12 09:03:49;;;;;;;2.87;0.83;;;27.40;99.90;;;;;;5056377;28;20201;-83
2021/06/12 09:06:22;;;;;;;1.03;0.53;;;27.50;99.90;;;;;;5056330;28;20214;-82
2021/06/12 09:08:48;;;;;;;0.63;0.53;;;27.40;99.90;;;;;;5058468;28;20509;-83
2021/06/12 09:11:16;;;;;;;0.30;0.30;;;27.50;99.90;;;;;;5048627;28;20190;-83
2021/06/12 09:13:47;;;;;;;0.50;0.50;;;27.40;99.90;;;;;;5059468;28;20551;-83
2021/06/12 09:16:26;;;;;;;2.23;0.57;;;27.10;99.90;;;;;;5068950;28;20189;-83
2021/06/12 09:18:54;;;;;;;0.50;0.50;;;27.30;99.90;;;;;;5052659;28;20226;-83
2021/06/12 09:21:42;;;;;;;1.23;0.33;;;27.30;99.90;;;;;;5066872;28;20217;-83
2021/06/12 09:24:27;;;;;;;0.60;0.60;;;27.50;99.90;;;;;;5051780;28;20182;-83
2021/06/12 09:26:58;;;;;;;0.50;0.50;;;27.40;99.90;;;;;;5048328;28;20222;-83
2021/06/12 09:29:34;;;;;;;1.67;0.47;;;27.60;99.90;;;;;;5049512;28;20289;-83
2021/06/12 09:31:59;;;;;;;0.40;0.37;;;27.60;99.90;;;;;;5071994;28;20185;-83
2021/06/12 09:34:26;;;;;;;0.37;0.37;;;27.70;99.90;;;;;;5050629;28;20188;-83
2021/06/12 09:36:52;;;;;;;0.30;0.30;;;27.70;99.90;;;;;;5049321;28;20194;-83
2021/06/12 09:39:21;;;;;;;0.30;0.30;;;27.70;99.90;;;;;;5051289;28;20209;-85
2021/06/12 09:41:49;;;;;;;0.60;0.43;;;27.70;99.90;;;;;;5046374;28;20185;-84
2021/06/12 09:44:39;;;;;;;0.40;0.40;;;27.60;99.90;;;;;;5046188;28;20277;-83
2021/06/12 09:47:11;;;;;;;1.07;0.53;;;27.90;99.90;;;;;;5049188;28;20186;-84
2021/06/12 09:49:39;;;;;;;0.30;0.30;;;27.90;99.90;;;;;;5051947;28;20185;-84
2021/06/12 09:52:14;;;;;;;0.57;0.43;;;28.10;99.90;;;;;;5040953;28;20174;-84
2021/06/12 09:54:44;;;;;;;0.87;0.53;;;28.50;99.90;;;;;;5050482;28;20773;-81
2021/06/12 09:57:15;;;;;;;0.53;0.30;;;28.60;99.90;;;;;;5051020;28;20189;-84
2021/06/12 09:59:55;;;;;;;0.93;0.40;;;28.40;99.90;;;;;;5051475;28;20203;-84
2021/06/12 10:02:47;;;;;;;2.27;0.30;;;28.50;99.90;;;;;;5051687;28;20182;-84
2021/06/12 10:05:16;;;;;;;0.33;0.30;;;28.50;99.90;;;;;;5049189;28;20217;-83
2021/06/12 10:07:42;;;;;;;0.50;0.37;;;28.50;99.90;;;;;;5052669;28;20209;-83
2021/06/12 10:10:11;;;;;;;0.30;0.30;;;28.40;99.90;;;;;;5051734;28;20551;-83
2021/06/12 10:12:37;;;;;;;0.63;0.40;;;28.40;99.90;;;;;;5049378;28;20188;-84
2021/06/12 10:15:06;;;;;;;0.32;0.32;;;28.10;99.90;;;;;;5050067;28;20197;-83
2021/06/12 10:17:38;;;;;;;0.65;0.32;;;28.40;99.90;;;;;;5050258;28;20221;-84
2021/06/12 10:20:04;;;;;;;0.40;0.40;;;28.10;99.90;;;;;;5049524;28;20658;-82
2021/06/12 10:22:30;;;;;;;0.35;0.35;;;28.30;99.90;;;;;;5046812;28;20185;-84
2021/06/12 10:24:56;;;;;;;0.53;0.37;;;28.50;99.90;;;;;;5058683;28;20197;-84
2021/06/12 10:27:25;;;;;;;0.30;0.30;;;28.40;99.90;;;;;;5040859;28;20225;-84
2021/06/12 10:29:51;;;;;;;0.40;0.40;;;28.40;99.90;;;;;;5051062;28;20189;-83
2021/06/12 10:32:17;;;;;;;0.52;0.52;;;28.50;99.90;;;;;;5048858;28;20273;-83
2021/06/12 10:34:43;;;;;;;0.32;0.32;;;28.70;99.90;;;;;;5051170;28;20190;-84
2021/06/12 10:37:10;;;;;;;0.43;0.40;;;28.80;99.90;;;;;;5039842;28;20239;-84
2021/06/12 10:39:38;;;;;;;0.35;0.35;;;28.10;99.90;;;;;;5054009;28;20651;-82
2021/06/12 10:42:25;;;;;;;0.50;0.50;;;28.60;99.90;;;;;;5046725;28;20186;-84
2021/06/12 10:44:54;;;;;;;0.50;0.50;;;28.50;99.90;;;;;;5050393;28;20189;-84
2021/06/12 10:47:42;;;;;;;0.30;0.30;;;29.00;99.90;;;;;;5049432;28;20209;-84
2021/06/12 10:50:26;;;;;;;0.47;0.47;;;29.40;99.90;;;;;;5065702;28;20185;-84
2021/06/12 10:53:32;;;;;;;0.55;0.55;;;29.30;99.90;;;;;;5069290;28;20191;-83
2021/06/12 10:55:59;;;;;;;0.50;0.50;;;29.40;99.90;;;;;;5052861;28;20665;-84
2021/06/12 10:58:31;;;;;;;0.43;0.40;;;29.20;99.90;;;;;;5050648;28;20205;-81
2021/06/12 11:01:17;;;;;;;0.32;0.32;;;29.50;99.90;;;;;;5042765;28;20758;-84
2021/06/12 11:04:05;;;;;;;0.70;0.70;;;29.50;99.90;;;;;;5057262;28;20186;-86
2021/06/12 11:06:40;;;;;;;0.88;0.65;;;29.60;99.90;;;;;;5065533;28;20222;-87
2021/06/12 11:09:26;;;;;;;0.75;0.60;;;29.50;99.90;;;;;;5046732;28;20197;-86
2021/06/12 11:12:15;;;;;;;0.52;0.52;;;29.40;99.90;;;;;;5040867;28;20195;-86
2021/06/12 11:15:01;;;;;;;0.60;0.60;;;28.70;99.90;;;;;;5037592;28;20193;-86
2021/06/12 11:17:27;;;;;;;0.40;0.40;;;28.80;99.90;;;;;;5046500;28;20236;-85
2021/06/12 11:20:01;;;;;;;0.50;0.40;;;29.30;99.90;;;;;;5043863;28;20209;-85
2021/06/12 11:22:40;;;;;;;1.17;0.68;;;29.20;99.90;;;;;;5030306;28;20581;-86
2021/06/12 11:25:09;;;;;;;0.50;0.50;;;28.60;99.90;;;;;;5054976;28;20209;-85
2021/06/12 11:27:42;;;;;;;0.38;0.38;;;28.20;99.90;;;;;;5046299;28;20202;-85
2021/06/12 11:30:21;;;;;;;0.50;0.50;;;27.70;99.90;;;;;;5062167;28;20225;-86
2021/06/12 11:32:59;;;;;;;0.38;0.38;;;27.70;99.90;;;;;;5047977;28;20174;-85
2021/06/12 11:35:56;;;;;;;0.50;0.50;;;27.60;99.90;;;;;;5046032;28;20208;-86
2021/06/12 11:38:32;;;;;;;0.45;0.45;;;27.60;99.90;;;;;;5041922;28;20202;-86
2021/06/12 11:41:13;;;;;;;3.80;0.60;;;27.00;99.90;;;;;;5066464;28;20657;-85
2021/06/12 11:43:52;;;;;;;0.50;0.50;;;26.80;99.90;;;;;;5048801;28;20668;-85
2021/06/12 11:46:30;;;;;;;0.60;0.60;;;26.60;99.90;;;;;;5046940;28;20278;-86
2021/06/12 11:48:57;;;;;;;0.63;0.63;;;26.30;99.90;;;;;;5045299;28;20194;-86
2021/06/12 11:51:25;;;;;;;0.30;0.30;;;26.30;99.90;;;;;;5046289;28;20605;-85
2021/06/12 11:54:08;;;;;;;0.60;0.60;;;26.10;99.90;;;;;;5046088;28;20223;-85
2021/06/12 11:56:47;;;;;;;0.30;0.30;;;25.80;99.90;;;;;;5050023;28;20182;-85
2021/06/12 11:59:15;;;;;;;0.30;0.30;;;26.50;99.90;;;;;;5045703;28;20362;-82
2021/06/12 12:01:57;;;;;;;0.57;0.57;;;27.00;99.90;;;;;;5046502;28;20193;-83
2021/06/12 12:04:23;;;;;;;0.20;0.20;;;27.40;99.90;;;;;;5046397;28;20680;-84
2021/06/12 12:06:56;;;;;;;0.70;0.60;;;27.40;99.90;;;;;;5043336;28;20209;-84
2021/06/12 12:09:29;;;;;;;0.43;0.37;;;27.60;99.90;;;;;;5046716;28;20284;-84
2021/06/12 12:12:06;;;;;;;0.43;0.33;;;27.60;99.90;;;;;;5049135;28;20189;-83
2021/06/12 12:14:34;;;;;;;0.43;0.33;;;27.60;99.90;;;;;;5055083;28;20540;-84
2021/06/12 12:17:01;;;;;;;0.20;0.20;;;27.50;99.90;;;;;;5043126;28;20176;-85
2021/06/12 12:19:27;;;;;;;0.10;0.10;;;27.60;99.90;;;;;;5064063;28;20181;-85
2021/06/12 12:21:55;;;;;;;0.47;0.43;;;28.00;99.90;;;;;;5053614;28;20184;-83
2021/06/12 12:24:21;;;;;;;0.30;0.30;;;27.60;99.90;;;;;;5046143;28;20186;-83
2021/06/12 12:26:53;;;;;;;0.87;0.87;;;27.40;99.90;;;;;;5066221;28;20225;-83
2021/06/12 12:29:22;;;;;;;0.50;0.40;;;27.00;99.90;;;;;;5045849;28;20661;-85
2021/06/12 12:31:49;;;;;;;0.70;0.70;;;26.90;99.90;;;;;;5049021;28;20269;-83
2021/06/12 12:34:24;;;;;;;0.50;0.50;;;26.80;99.90;;;;;;5047177;28;20186;-83
2021/06/12 12:36:50;;;;;;;0.50;0.50;;;26.60;99.90;;;;;;5048982;28;20235;-83
2021/06/12 12:39:16;;;;;;;2.03;1.93;;;26.00;99.90;;;;;;5048844;28;20713;-82
2021/06/12 12:41:56;;;;;;;0.43;0.40;;;26.00;99.90;;;;;;5048649;28;20281;-83
2021/06/12 12:44:22;;;;;;;0.67;0.67;;;25.60;99.90;;;;;;5040257;28;20225;-80
2021/06/12 12:46:49;;;;;;;0.80;0.80;;;25.50;99.90;;;;;;5050577;28;20215;-83
2021/06/12 12:49:26;;;;;;;0.50;0.47;;;25.70;99.90;;;;;;5049039;28;20297;-83
2021/06/12 12:51:59;;;;;;;0.53;0.53;;;25.50;99.90;;;;;;5064527;28;20681;-82
2021/06/12 12:54:26;;;;;;;0.47;0.47;;;25.70;99.90;;;;;;5048895;28;20200;-83
2021/06/12 12:56:57;;;;;;;0.27;0.27;;;25.90;99.90;;;;;;5059917;28;20185;-83